Other Surface Observations
Issued by NWS Great Falls, MT

Home | Current Version | Previous Version | Text Only | Print | Product List | Glossary On
Versions: 1 2 3 4 5 6 7 8 9 10 11 12 13 14 15 16 17 18 19 20 21 22 23 24 25 26 27 28 29 30 31 32 33 34 35 36 37 38 39 40 41 42 43 44 45 46 47 48 49 50
000
SXUS55 KTFX 270606
OSOTFX

AREA AWOS OBSERVATIONS
NATIONAL WEATHER SERVICE GREAT FALLS MT
1106 PM MST Sat Nov 26 2022

METAR K9S2 121845Z AUTO 24/06 A2969 RMK Scobey
METAR K9S5 270555Z AUTO 00000KT 10SM M09/M11 A3000 RMK Three Forks
METAR KRPX 270554Z AUTO 10SM M01/M03 A2983 RMK Roundup
METAR KS34 270455Z AUTO 00000KT 10SM 02/02 A3012 RMK Plains
METAR KTHM 270455Z AUTO 00000KT 10SM 01/M03 A3017 RMK Thompson Falls


USA.gov is the U.S. government's official web portal to all federal, state and local government web resources and services.